createdAt,value
2022-09-06T00:00:36.719Z,40.79
2022-09-06T00:03:03.791Z,41.02
2022-09-06T00:05:30.210Z,41.40
2022-09-06T00:07:57.384Z,41.58
2022-09-06T00:10:23.775Z,42.10
2022-09-06T00:12:51.048Z,42.94
2022-09-06T00:18:32.233Z,49.47
2022-09-06T00:20:58.712Z,52.12
2022-09-06T00:23:25.135Z,53.65
2022-09-06T00:25:52.192Z,55.19
2022-09-06T00:28:19.391Z,58.98
2022-09-06T00:30:45.984Z,61.82
2022-09-06T00:33:12.463Z,62.56
2022-09-06T00:35:38.985Z,65.36
2022-09-06T00:38:05.436Z,66.56
2022-09-06T00:40:32.980Z,68.08
2022-09-06T00:42:59.352Z,68.63
2022-09-06T00:45:25.801Z,69.52
2022-09-06T00:47:52.289Z,69.53
2022-09-06T00:50:18.829Z,69.10
2022-09-06T00:52:45.218Z,69.21
2022-09-06T00:55:11.679Z,69.12
2022-09-06T00:57:38.139Z,70.31
2022-09-06T01:00:05.701Z,70.24
2022-09-06T01:02:33.112Z,70.89
2022-09-06T01:04:59.675Z,70.19
2022-09-06T01:07:26.215Z,70.87
2022-09-06T01:09:52.668Z,70.57
2022-09-06T01:12:19.110Z,70.80
2022-09-06T01:14:45.622Z,71.15
2022-09-06T01:17:12.096Z,70.85
2022-09-06T01:19:38.570Z,71.55
2022-09-06T01:22:04.940Z,71.69
2022-09-06T01:24:32.342Z,72.31
2022-09-06T01:26:58.840Z,71.01
2022-09-06T01:29:26.073Z,70.47
2022-09-06T01:31:52.464Z,70.00
2022-09-06T01:34:18.931Z,70.10
2022-09-06T01:37:06.389Z,69.49
2022-09-06T01:39:32.494Z,69.67
2022-09-06T01:41:58.975Z,69.88
2022-09-06T01:44:25.418Z,69.89
2022-09-06T01:46:52.695Z,70.20
2022-09-06T01:49:19.219Z,70.75
2022-09-06T01:51:45.572Z,70.61
2022-09-06T01:54:12.276Z,71.36
2022-09-06T01:56:38.644Z,71.07
2022-09-06T01:59:05.109Z,72.09
2022-09-06T02:01:31.755Z,72.23
2022-09-06T02:03:58.197Z,72.83
2022-09-06T02:06:26.933Z,72.47
2022-09-06T02:08:53.589Z,72.50
2022-09-06T02:11:20.154Z,72.63
2022-09-06T02:13:47.341Z,72.29
2022-09-06T02:16:14.328Z,72.74
2022-09-06T02:18:40.946Z,72.63
2022-09-06T02:21:07.384Z,72.74
2022-09-06T02:23:33.909Z,72.31
2022-09-06T02:26:00.323Z,72.33
2022-09-06T02:28:26.787Z,71.72
2022-09-06T02:30:53.441Z,72.26
2022-09-06T02:33:20.718Z,72.10
2022-09-06T02:35:47.212Z,72.31
2022-09-06T02:38:13.673Z,72.66
2022-09-06T02:40:40.207Z,72.46
2022-09-06T02:43:06.670Z,72.02
2022-09-06T02:45:33.253Z,71.79
2022-09-06T02:48:00.471Z,72.45
2022-09-06T02:50:27.109Z,73.13
2022-09-06T02:52:57.019Z,73.60
2022-09-06T02:55:23.353Z,72.95
2022-09-06T02:57:49.811Z,72.98
2022-09-06T03:00:16.229Z,72.51
2022-09-06T03:02:43.760Z,72.54
2022-09-06T03:05:11.095Z,72.11
2022-09-06T03:07:38.311Z,72.68
2022-09-06T03:10:05.039Z,71.99
2022-09-06T03:12:31.858Z,72.05
2022-09-06T03:14:59.235Z,72.01
2022-09-06T03:17:25.956Z,72.59
2022-09-06T03:19:52.401Z,72.79
2022-09-06T03:22:18.834Z,73.19
2022-09-06T03:24:45.280Z,73.08
2022-09-06T03:27:11.890Z,73.99
2022-09-06T03:29:39.146Z,73.83
2022-09-06T03:32:05.514Z,74.12
2022-09-06T03:34:31.952Z,74.07
2022-09-06T03:36:59.508Z,74.21
2022-09-06T03:39:26.047Z,74.32
2022-09-06T03:41:52.486Z,73.79
2022-09-06T03:44:19.004Z,73.92
2022-09-06T03:46:46.322Z,74.23
2022-09-06T03:49:13.147Z,74.44
2022-09-06T03:51:39.745Z,74.77
2022-09-06T03:54:06.262Z,74.86
2022-09-06T03:56:32.850Z,74.99
2022-09-06T03:59:00.239Z,74.95
2022-09-06T04:01:26.716Z,75.31
2022-09-06T04:03:53.092Z,75.59
2022-09-06T04:06:20.294Z,75.56
2022-09-06T04:08:46.856Z,76.73
2022-09-06T04:11:14.333Z,76.59
2022-09-06T04:13:41.608Z,76.84
2022-09-06T04:16:08.286Z,77.54
2022-09-06T04:18:34.765Z,77.38
2022-09-06T04:21:01.298Z,77.38
2022-09-06T04:23:27.715Z,77.46
2022-09-06T04:25:54.251Z,77.79
2022-09-06T04:28:21.339Z,77.96
2022-09-06T04:30:47.807Z,78.17
2022-09-06T04:33:14.221Z,78.08
2022-09-06T04:35:40.776Z,77.93
2022-09-06T04:38:07.187Z,77.68
2022-09-06T04:40:33.620Z,78.19
2022-09-06T04:43:01.114Z,78.29
2022-09-06T04:45:27.669Z,78.43
2022-09-06T04:47:54.115Z,78.68
2022-09-06T04:50:22.282Z,78.34
2022-09-06T04:52:48.712Z,78.19
2022-09-06T04:55:15.263Z,77.66
2022-09-06T04:57:46.555Z,78.39
2022-09-06T05:00:14.972Z,78.23
2022-09-06T05:02:41.467Z,78.26
2022-09-06T05:05:08.188Z,78.53
2022-09-06T05:07:34.639Z,78.31
2022-09-06T05:10:01.117Z,78.41
2022-09-06T05:12:27.636Z,78.38
2022-09-06T05:14:54.169Z,78.32
2022-09-06T05:17:20.836Z,77.83
2022-09-06T05:19:49.301Z,77.43
2022-09-06T05:22:15.667Z,77.50
2022-09-06T05:24:42.204Z,76.64
2022-09-06T05:27:08.684Z,76.12
2022-09-06T05:29:35.177Z,76.00
2022-09-06T05:32:01.729Z,75.46
2022-09-06T05:34:28.388Z,75.21
2022-09-06T05:36:54.914Z,74.99
2022-09-06T05:39:21.992Z,74.96
2022-09-06T05:41:49.308Z,74.92
2022-09-06T05:44:15.791Z,74.23
2022-09-06T05:46:42.225Z,73.76
2022-09-06T05:49:10.382Z,73.44
2022-09-06T05:51:36.791Z,73.04
2022-09-06T05:54:03.219Z,72.80
2022-09-06T05:56:29.746Z,72.15
2022-09-06T05:58:56.267Z,70.94
2022-09-06T06:01:22.736Z,65.76
2022-09-06T06:03:49.214Z,59.15
2022-09-06T06:06:15.646Z,55.02
2022-09-06T06:08:42.099Z,52.01
2022-09-06T06:11:08.605Z,48.32
2022-09-06T06:13:39.355Z,46.41
2022-09-06T06:16:05.888Z,44.46
2022-09-06T06:18:32.363Z,43.07
2022-09-06T06:20:58.872Z,41.65
2022-09-06T06:23:25.875Z,40.92
2022-09-06T06:25:53.351Z,40.51
2022-09-06T06:28:19.764Z,40.84
2022-09-06T06:30:46.224Z,40.05
2022-09-06T06:33:12.645Z,38.34
2022-09-06T06:35:40.209Z,38.75
2022-09-06T06:38:06.624Z,37.87
2022-09-06T06:40:33.652Z,37.13
2022-09-06T06:43:00.425Z,37.00
2022-09-06T06:45:27.731Z,35.87
2022-09-06T06:47:54.200Z,35.40
2022-09-06T06:50:20.885Z,34.86
2022-09-06T06:52:50.275Z,35.26
2022-09-06T06:55:19.848Z,34.53
2022-09-06T06:57:46.291Z,34.69
2022-09-06T07:00:12.787Z,34.48
2022-09-06T07:02:39.227Z,32.98
2022-09-06T07:07:52.074Z,32.73
2022-09-06T07:10:34.237Z,32.32
2022-09-06T07:13:00.979Z,31.81
2022-09-06T07:15:27.393Z,31.44
2022-09-06T07:17:54.642Z,31.24
2022-09-06T07:20:21.115Z,30.65
2022-09-06T07:22:47.696Z,29.51
2022-09-06T07:25:20.375Z,29.92
2022-09-06T07:27:49.855Z,28.32
2022-09-06T07:30:16.864Z,28.91
2022-09-06T07:32:43.411Z,29.29
2022-09-06T07:35:10.121Z,30.73
2022-09-06T07:37:36.692Z,29.61
2022-09-06T07:40:03.210Z,27.57
2022-09-06T07:42:36.076Z,27.02
2022-09-06T07:45:03.078Z,26.47
2022-09-06T07:53:13.036Z,28.14
2022-09-06T07:55:43.424Z,28.03
2022-09-06T07:58:09.994Z,27.10
2022-09-06T08:00:38.308Z,27.38
2022-09-06T08:03:04.913Z,26.91
2022-09-06T08:11:07.554Z,27.98
2022-09-06T08:13:33.995Z,26.95
2022-09-06T08:16:00.584Z,25.77
2022-09-06T08:18:27.070Z,26.97
2022-09-06T08:20:53.506Z,27.43
2022-09-06T08:23:19.906Z,27.60
2022-09-06T08:25:47.382Z,27.78
2022-09-06T08:28:15.152Z,26.51
2022-09-06T08:30:41.738Z,26.97
2022-09-06T08:33:08.188Z,26.76
2022-09-06T08:35:34.664Z,27.80
2022-09-06T08:38:01.084Z,28.98
2022-09-06T08:40:27.568Z,28.08
2022-09-06T08:42:54.373Z,27.18
2022-09-06T08:45:23.304Z,27.04
2022-09-06T08:47:51.115Z,26.21
2022-09-06T08:50:17.567Z,25.93
2022-09-06T08:52:49.725Z,26.62
2022-09-06T08:55:31.406Z,27.56
2022-09-06T08:57:57.795Z,26.47
2022-09-06T09:00:24.484Z,25.56
2022-09-06T09:02:55.628Z,25.03
2022-09-06T09:05:22.287Z,24.98
2022-09-06T09:07:48.955Z,23.52
2022-09-06T09:10:16.298Z,23.65
2022-09-06T09:12:42.779Z,23.56
2022-09-06T09:15:10.001Z,24.79
2022-09-06T09:17:37.267Z,25.54
2022-09-06T09:20:03.895Z,26.08
2022-09-06T09:22:30.285Z,25.95
2022-09-06T09:24:56.719Z,24.75
2022-09-06T09:27:23.188Z,24.59
2022-09-06T09:32:37.157Z,25.51
2022-09-06T09:35:03.653Z,25.20
2022-09-06T09:40:13.267Z,25.69
2022-09-06T09:42:39.858Z,25.23
2022-09-06T09:45:07.255Z,25.83
2022-09-06T09:47:33.782Z,27.07
2022-09-06T09:50:00.294Z,28.32
2022-09-06T09:52:27.437Z,28.23
2022-09-06T09:54:56.199Z,28.32
2022-09-06T09:57:22.713Z,28.34
2022-09-06T09:59:49.255Z,28.44
2022-09-06T10:02:17.260Z,28.82
2022-09-06T10:04:44.504Z,29.12
2022-09-06T10:07:11.578Z,29.81
2022-09-06T10:09:39.491Z,30.39
2022-09-06T10:12:05.912Z,31.40
2022-09-06T10:14:33.746Z,32.32
2022-09-06T10:17:00.649Z,32.10
2022-09-06T10:19:27.141Z,32.05
2022-09-06T10:21:53.723Z,32.54
2022-09-06T10:24:27.898Z,31.86
2022-09-06T10:26:54.769Z,31.97
2022-09-06T10:29:22.532Z,32.16
2022-09-06T10:31:49.125Z,32.42
2022-09-06T10:34:16.143Z,32.27
2022-09-06T10:36:42.707Z,32.50
2022-09-06T10:39:09.192Z,32.27
2022-09-06T10:41:35.840Z,31.69
2022-09-06T10:44:02.424Z,32.10
2022-09-06T10:46:29.290Z,31.22
2022-09-06T10:48:55.952Z,32.18
2022-09-06T10:51:24.449Z,31.57
2022-09-06T10:53:50.871Z,31.92
2022-09-06T10:56:17.414Z,32.07
2022-09-06T11:01:30.507Z,31.60
2022-09-06T11:04:00.318Z,31.84
2022-09-06T11:06:31.397Z,31.79
2022-09-06T11:08:59.482Z,32.26
2022-09-06T11:11:26.063Z,32.58
2022-09-06T11:13:52.804Z,31.74
2022-09-06T11:16:20.697Z,31.70
2022-09-06T11:18:47.158Z,31.46
2022-09-06T11:21:17.448Z,31.75
2022-09-06T11:23:45.858Z,32.72
2022-09-06T11:26:12.638Z,32.98
2022-09-06T11:28:39.266Z,32.75
2022-09-06T11:31:05.977Z,33.01
2022-09-06T11:33:35.603Z,32.81
2022-09-06T11:36:02.170Z,31.78
2022-09-06T11:38:28.746Z,31.82
2022-09-06T11:40:55.509Z,32.52
2022-09-06T11:43:22.938Z,32.61
2022-09-06T11:45:50.231Z,32.67
2022-09-06T11:48:16.689Z,32.81
2022-09-06T11:50:43.035Z,32.25
2022-09-06T11:53:14.320Z,32.24
2022-09-06T11:55:40.901Z,32.13
2022-09-06T11:58:07.648Z,31.61
2022-09-06T12:00:34.529Z,31.79
2022-09-06T12:05:51.682Z,31.69
2022-09-06T12:08:19.076Z,31.54
2022-09-06T12:10:45.550Z,31.38
2022-09-06T12:13:13.535Z,31.23
2022-09-06T12:15:40.251Z,31.27
2022-09-06T12:18:06.718Z,31.38
2022-09-06T12:20:33.536Z,31.02
2022-09-06T12:23:00.530Z,31.10
2022-09-06T12:25:27.202Z,31.06
2022-09-06T12:27:55.462Z,30.76
2022-09-06T12:30:23.524Z,31.17
2022-09-06T12:32:50.080Z,30.65
2022-09-06T12:38:03.937Z,29.22
2022-09-06T12:40:30.563Z,29.77
2022-09-06T12:42:56.980Z,29.96
2022-09-06T12:45:27.225Z,29.56
2022-09-06T12:47:56.358Z,28.62
2022-09-06T12:50:23.819Z,28.68
2022-09-06T12:52:50.322Z,28.77
2022-09-06T12:55:16.790Z,29.51
2022-09-06T12:57:43.224Z,29.59
2022-09-06T13:00:09.640Z,29.71
2022-09-06T13:02:37.407Z,30.20
2022-09-06T13:05:05.537Z,29.75
2022-09-06T13:07:32.020Z,29.52
2022-09-06T13:09:58.625Z,30.17
2022-09-06T13:12:26.380Z,29.62
2022-09-06T13:14:52.897Z,29.40
2022-09-06T13:17:20.178Z,28.30
2022-09-06T13:19:46.694Z,25.67
2022-09-06T13:22:13.221Z,24.67
2022-09-06T13:24:46.902Z,25.20
2022-09-06T13:27:14.788Z,24.68
2022-09-06T13:29:41.186Z,23.94
2022-09-06T13:32:09.608Z,24.49
2022-09-06T13:34:36.767Z,22.69
2022-09-06T13:37:03.430Z,21.39
2022-09-06T13:39:31.522Z,21.83
2022-09-06T13:41:58.997Z,22.29
2022-09-06T13:44:25.390Z,22.71
2022-09-06T13:46:51.969Z,23.17
2022-09-06T13:49:18.366Z,23.93
2022-09-06T13:51:44.836Z,24.09
2022-09-06T13:54:12.084Z,24.30
2022-09-06T13:56:39.308Z,24.15
2022-09-06T13:59:05.844Z,26.54
2022-09-06T14:01:32.554Z,26.91
2022-09-06T14:03:59.107Z,27.32
2022-09-06T14:06:25.647Z,27.65
2022-09-06T14:09:08.640Z,27.54
2022-09-06T14:11:35.372Z,26.76
2022-09-06T14:14:01.846Z,26.55
2022-09-06T14:16:30.116Z,26.14
2022-09-06T14:18:56.646Z,26.45
2022-09-06T14:21:23.203Z,26.63
2022-09-06T14:23:51.093Z,26.84
2022-09-06T14:26:19.025Z,26.22
2022-09-06T14:28:46.002Z,24.62
2022-09-06T14:31:12.676Z,23.66
2022-09-06T14:33:39.223Z,23.73
2022-09-06T14:36:06.649Z,23.68
2022-09-06T14:38:33.218Z,23.31
2022-09-06T14:40:59.784Z,24.13
2022-09-06T14:43:26.304Z,22.82
2022-09-06T14:45:52.794Z,22.39
2022-09-06T14:48:19.913Z,22.33
2022-09-06T14:50:47.082Z,22.59
2022-09-06T14:53:38.825Z,22.50
2022-09-06T14:56:03.196Z,22.77
2022-09-06T14:58:31.028Z,22.73
2022-09-06T15:00:57.906Z,22.21
2022-09-06T15:03:24.608Z,22.25
2022-09-06T15:05:52.027Z,22.01
2022-09-06T15:08:19.053Z,22.58
2022-09-06T15:10:45.901Z,22.37
2022-09-06T15:13:12.463Z,22.50
2022-09-06T15:15:39.043Z,21.96
2022-09-06T15:18:05.565Z,21.79
2022-09-06T15:20:33.164Z,21.84
2022-09-06T15:23:34.258Z,21.68
2022-09-06T15:25:47.119Z,21.30
2022-09-06T15:28:13.969Z,21.16
2022-09-06T15:30:43.009Z,22.13
2022-09-06T15:33:10.240Z,21.79
2022-09-06T15:35:37.006Z,21.49
2022-09-06T15:38:03.471Z,20.95
2022-09-06T15:40:29.982Z,21.41
2022-09-06T15:42:56.391Z,21.16
2022-09-06T15:45:23.189Z,21.50
2022-09-06T15:47:50.550Z,21.34
2022-09-06T15:50:34.475Z,21.21
2022-09-06T15:53:04.347Z,20.90
2022-09-06T15:55:49.579Z,21.24
2022-09-06T15:58:17.039Z,21.34
2022-09-06T16:00:43.901Z,21.26
2022-09-06T16:03:13.808Z,21.45
2022-09-06T16:08:27.005Z,21.94
2022-09-06T16:10:53.510Z,21.61
2022-09-06T16:13:20.164Z,22.29
2022-09-06T16:15:46.571Z,22.06
2022-09-06T16:18:13.083Z,21.82
2022-09-06T16:20:39.569Z,21.87
2022-09-06T16:23:07.603Z,22.42
2022-09-06T16:25:34.688Z,22.78
2022-09-06T16:28:02.587Z,22.77
2022-09-06T16:30:29.297Z,22.08
2022-09-06T16:32:55.867Z,22.09
2022-09-06T16:35:22.390Z,22.52
2022-09-06T16:37:49.054Z,22.26
2022-09-06T16:40:15.736Z,22.26
2022-09-06T16:42:42.290Z,22.92
2022-09-06T16:45:08.731Z,22.86
2022-09-06T16:47:37.702Z,22.93
2022-09-06T16:50:04.159Z,23.30
2022-09-06T16:52:30.663Z,23.75
2022-09-06T16:54:57.632Z,23.50
2022-09-06T16:57:24.962Z,23.75
2022-09-06T16:59:51.580Z,24.01
2022-09-06T17:02:22.117Z,24.36
2022-09-06T17:04:49.643Z,24.52
2022-09-06T17:07:16.089Z,24.88
2022-09-06T17:09:45.588Z,25.37
2022-09-06T17:12:12.042Z,25.41
2022-09-06T17:14:38.616Z,25.29
2022-09-06T17:17:05.328Z,25.75
2022-09-06T17:19:32.069Z,25.69
2022-09-06T17:21:58.575Z,25.71
2022-09-06T17:24:27.162Z,26.04
2022-09-06T17:26:53.718Z,25.77
2022-09-06T17:29:20.599Z,26.67
2022-09-06T17:31:49.401Z,25.93
2022-09-06T17:34:17.102Z,26.31
2022-09-06T17:36:43.803Z,26.60
2022-09-06T17:39:11.594Z,26.25
2022-09-06T17:41:38.974Z,25.94
2022-09-06T17:44:05.724Z,26.07
2022-09-06T17:46:32.233Z,26.39
2022-09-06T17:48:58.949Z,26.76
2022-09-06T17:51:25.376Z,26.93
2022-09-06T17:53:52.587Z,27.12
2022-09-06T17:56:19.026Z,27.27
2022-09-06T17:58:46.354Z,27.39
2022-09-06T18:01:13.180Z,27.24
2022-09-06T18:03:39.654Z,28.44
2022-09-06T18:06:07.530Z,27.96
2022-09-06T18:08:34.052Z,28.13
2022-09-06T18:11:00.603Z,28.18
2022-09-06T18:13:27.315Z,28.50
2022-09-06T18:15:53.943Z,29.94
2022-09-06T18:18:21.838Z,30.57
2022-09-06T18:20:52.757Z,31.15
2022-09-06T18:23:20.444Z,31.88
2022-09-06T18:25:47.145Z,31.21
2022-09-06T18:28:14.764Z,32.42
2022-09-06T18:30:42.227Z,32.90
2022-09-06T18:33:09.746Z,33.41
2022-09-06T18:35:36.176Z,33.76
2022-09-06T18:38:03.111Z,34.22
2022-09-06T18:40:30.883Z,34.45
2022-09-06T18:42:57.587Z,34.45
2022-09-06T18:45:25.074Z,34.56
2022-09-06T18:47:52.639Z,34.79
2022-09-06T18:50:20.214Z,35.03
2022-09-06T18:52:47.014Z,35.59
2022-09-06T18:55:13.473Z,36.21
2022-09-06T18:57:39.981Z,36.95
2022-09-06T19:00:07.500Z,37.40
2022-09-06T19:02:34.988Z,37.81
2022-09-06T19:05:01.545Z,38.05
2022-09-06T19:07:29.785Z,38.50
2022-09-06T19:09:56.502Z,38.46
2022-09-06T19:12:23.146Z,38.70
2022-09-06T19:14:52.454Z,38.71
2022-09-06T19:17:19.302Z,38.63
2022-09-06T19:19:48.581Z,38.60
2022-09-06T19:22:15.519Z,38.39
2022-09-06T19:24:44.439Z,38.80
2022-09-06T19:27:12.049Z,38.71
2022-09-06T19:29:38.692Z,38.42
2022-09-06T19:32:06.459Z,38.51
2022-09-06T19:34:34.018Z,38.74
2022-09-06T19:37:00.844Z,38.78
2022-09-06T19:39:36.844Z,38.82
2022-09-06T19:42:04.650Z,38.85
2022-09-06T19:44:31.462Z,39.09
2022-09-06T19:46:59.914Z,39.00
2022-09-06T19:49:27.688Z,38.74
2022-09-06T19:51:54.247Z,39.12
2022-09-06T19:54:20.729Z,39.64
2022-09-06T19:56:48.682Z,39.90
2022-09-06T19:59:15.628Z,40.57
2022-09-06T20:01:46.650Z,40.89
2022-09-06T20:04:14.946Z,41.27
2022-09-06T20:06:41.514Z,41.65
2022-09-06T20:09:09.044Z,41.93
2022-09-06T20:11:35.636Z,42.37
2022-09-06T20:14:06.041Z,42.34
2022-09-06T20:16:32.551Z,42.70
2022-09-06T20:19:00.170Z,42.67
2022-09-06T20:21:27.565Z,42.63
2022-09-06T20:23:54.120Z,42.96
2022-09-06T20:26:26.899Z,42.83
2022-09-06T20:28:54.061Z,42.61
2022-09-06T20:31:20.817Z,44.42
2022-09-06T20:33:50.069Z,46.14
2022-09-06T20:36:16.925Z,48.67
2022-09-06T20:38:44.279Z,50.38
2022-09-06T20:41:11.044Z,52.11
2022-09-06T20:43:37.849Z,53.12
2022-09-06T20:46:04.451Z,54.25
2022-09-06T20:48:31.171Z,53.78
2022-09-06T20:50:57.729Z,53.68
2022-09-06T20:53:24.249Z,52.54
2022-09-06T20:55:50.794Z,49.49
2022-09-06T20:58:17.379Z,46.74
2022-09-06T21:00:43.897Z,45.31
2022-09-06T21:03:14.696Z,44.93
2022-09-06T21:05:41.109Z,47.60
2022-09-06T21:08:07.685Z,50.46
2022-09-06T21:10:35.464Z,51.37
2022-09-06T21:13:01.955Z,52.74
2022-09-06T21:15:29.504Z,52.71
2022-09-06T21:17:56.851Z,53.85
2022-09-06T21:20:23.442Z,54.64
2022-09-06T21:22:49.964Z,53.10
2022-09-06T21:25:16.800Z,51.68
2022-09-06T21:27:43.372Z,49.57
2022-09-06T21:30:09.993Z,49.54
2022-09-06T21:32:36.515Z,49.13
2022-09-06T21:35:02.903Z,48.26
2022-09-06T21:37:29.316Z,48.18
2022-09-06T21:39:55.848Z,48.27
2022-09-06T21:42:22.247Z,47.70
2022-09-06T21:44:48.794Z,48.09
2022-09-06T21:47:15.865Z,47.00
2022-09-06T21:49:42.376Z,47.61
2022-09-06T21:52:09.023Z,47.94
2022-09-06T21:54:35.578Z,47.71
2022-09-06T21:57:02.126Z,47.54
2022-09-06T21:59:28.563Z,47.65
2022-09-06T22:01:55.069Z,48.24
2022-09-06T22:04:21.603Z,47.63
2022-09-06T22:06:48.168Z,47.78
2022-09-06T22:09:14.936Z,47.90
2022-09-06T22:11:41.449Z,48.35
2022-09-06T22:14:07.872Z,48.17
2022-09-06T22:16:34.388Z,48.12
2022-09-06T22:19:01.038Z,48.52
2022-09-06T22:21:27.456Z,48.57
2022-09-06T22:23:54.685Z,49.04
2022-09-06T22:26:21.154Z,48.73
2022-09-06T22:28:47.666Z,49.02
2022-09-06T22:31:14.168Z,48.76
2022-09-06T22:33:40.648Z,48.83
2022-09-06T22:36:07.497Z,49.36
2022-09-06T22:38:34.695Z,48.97
2022-09-06T22:41:01.234Z,49.47
2022-09-06T22:43:27.675Z,49.44
2022-09-06T22:45:54.504Z,49.42
2022-09-06T22:48:21.017Z,49.81
2022-09-06T22:50:47.469Z,49.98
2022-09-06T22:53:14.026Z,49.80
2022-09-06T22:55:40.549Z,50.08
2022-09-06T22:58:07.033Z,50.22
2022-09-06T23:00:33.799Z,50.45
2022-09-06T23:03:00.264Z,50.72
2022-09-06T23:05:26.704Z,51.12
2022-09-06T23:07:56.415Z,51.54
2022-09-06T23:10:23.971Z,51.90
2022-09-06T23:12:50.500Z,51.61
2022-09-06T23:15:17.153Z,51.56
2022-09-06T23:17:43.606Z,53.55
2022-09-06T23:20:10.079Z,56.31
2022-09-06T23:22:36.764Z,61.29
2022-09-06T23:25:03.211Z,64.83
2022-09-06T23:27:29.628Z,70.37
2022-09-06T23:29:56.225Z,72.37
2022-09-06T23:32:22.661Z,75.15
2022-09-06T23:34:49.246Z,74.12
